Rosaria Lauro — IXXO — position and weather

sailwx.info

Track history (hours):
 
Tides and Currents Weather Stations Pressure Air Temp Water Temp Dewpoint Dewpoint Depression Visibility Wind Speed Wind Dir Waves Ship Positions

Rosaria Lauro

Last reported at 2016-Aug-23 16:29 UTC. Time now 2016-Aug-24 19:40 UTC.
Position N 40°51' E 014°16'.

Length 40 m; draft 1.1 m.

Type: Passenger vessel. MMSI: 247055900.

Date/timePositionNaut miles runAvg speedWind from/ knotsBaromVisibWave heightAir tempDewpointWater temp
2016-Aug-23 16:29N 40°51' E 014°16'1 0.6
2016-Aug-23 15:31N 40°50' E 014°16'16 8.2
2016-Aug-23 13:33N 40°45' E 013°56'16 4.8
2016-Aug-23 10:16N 40°50' E 014°16'1622.5
2016-Aug-23 09:33N 40°46' E 013°56'2 1.5
2016-Aug-23 08:33N 40°45' E 013°56'16 6.5
2016-Aug-23 06:06N 40°50' E 014°16'1221.4
2016-Aug-23 05:33N 40°46' E 014°01'5 0.4
2016-Aug-22 16:32N 40°46' E 013°55'1715.0
2016-Aug-22 15:24N 40°50' E 014°16'17 8.5
2016-Aug-22 13:26N 40°45' E 013°55'1712.7
2016-Aug-22 12:07N 40°50' E 014°16'0 0.6
2016-Aug-22 11:30N 40°51' E 014°16'1 0.2
2016-Aug-22 09:28N 40°50' E 014°16'1616.5
2016-Aug-22 08:31N 40°45' E 013°56'7 7.6
2016-Aug-22 07:34N 40°46' E 014°06'2 0.8
2016-Aug-22 05:33N 40°45' E 014°04'8 0.7
2016-Aug-21 19:05N 40°46' E 013°54'1426.2
2016-Aug-21 18:33N 40°47' E 014°12'4 4.2
2016-Aug-21 17:33N 40°46' E 014°07'10 9.8
2016-Aug-21 16:33N 40°46' E 013°54'1716.1
2016-Aug-21 15:30N 40°50' E 014°16'17 8.6
2016-Aug-21 13:31N 40°46' E 013°54'1714.5
2016-Aug-21 12:21N 40°50' E 014°15'1417.9
2016-Aug-21 11:33N 40°44' E 013°58'5 5.0
2016-Aug-21 10:33N 40°46' E 013°52'1414.0
2016-Aug-21 09:33N 40°47' E 014°10'5 5.5
2016-Aug-21 08:33N 40°50' E 014°15'1515.4
2016-Aug-21 07:33N 40°45' E 013°56'1 1.0
2016-Aug-21 06:33N 40°45' E 013°56'1 0.5
2016-Aug-21 04:33N 40°45' E 013°56'9 1.1
2016-Aug-20 20:33N 40°46' E 014°08'8 7.5
2016-Aug-20 19:32N 40°51' E 014°16'0 0.0
2016-Aug-20 18:28N 40°51' E 014°16'0 0.0
2016-Aug-20 17:22N 40°51' E 014°16'0 0.0
2016-Aug-20 16:33N 40°51' E 014°16'0 0.3
2016-Aug-20 15:11N 40°50' E 014°16'1320.8
2016-Aug-20 14:33N 40°44' E 014°01'3 1.1
2016-Aug-20 11:33N 40°45' E 014°05'10 9.6
2016-Aug-20 10:32N 40°50' E 014°16'1615.9
2016-Aug-20 09:31N 40°45' E 013°56'0 0.0
2016-Aug-20 08:31N 40°45' E 013°56'14 7.2
2016-Aug-20 06:33N 40°49' E 014°14'7 7.4
2016-Aug-20 05:33N 40°46' E 014°05'2 0.2
2016-Aug-19 18:33N 40°47' E 014°08'0 0.3
2016-Aug-19 17:33N 40°46' E 014°08'1110.6
2016-Aug-19 16:33N 40°46' E 013°54'1711.6
2016-Aug-19 15:04N 40°50' E 014°16'1121.4
2016-Aug-19 14:33N 40°46' E 014°02'3 1.0
2016-Aug-19 11:33N 40°46' E 013°58'1413.6
2016-Aug-19 10:31N 40°50' E 014°16'1614.3
2016-Aug-19 09:25N 40°45' E 013°56'0 0.0
2016-Aug-19 08:30N 40°45' E 013°56'1612.2
2016-Aug-19 07:13N 40°50' E 014°16'2 2.2
2016-Aug-19 06:30N 40°50' E 014°14'8 8.4
2016-Aug-19 05:34N 40°46' E 014°04'9 0.7
2016-Aug-18 16:29N 40°46' E 013°53'1816.4
2016-Aug-18 15:23N 40°50' E 014°16'17 5.4
2016-Aug-18 12:13N 40°46' E 013°54'1218.1
2016-Aug-18 11:33N 40°47' E 014°10'3 2.6
2016-Aug-18 10:33N 40°48' E 014°13'13 6.6
2016-Aug-18 08:33N 40°45' E 013°56'1611.4
2016-Aug-18 07:10N 40°50' E 014°16'2 2.5
2016-Aug-18 06:24N 40°49' E 014°14'7 8.2
2016-Aug-18 05:34N 40°46' E 014°06'10 0.7
2016-Aug-17 16:29N 40°46' E 013°53'1816.1
2016-Aug-17 15:24N 40°50' E 014°16'16 8.6
2016-Aug-17 13:33N 40°45' E 013°56'16 5.3
2016-Aug-17 10:33N 40°49' E 014°17'16 8.0
2016-Aug-17 08:33N 40°45' E 013°56'1611.5
2016-Aug-17 07:10N 40°50' E 014°16'2 2.8
2016-Aug-17 06:26N 40°50' E 014°13'7 7.7
2016-Aug-17 05:33N 40°46' E 014°06'9 0.7
2016-Aug-16 16:31N 40°46' E 013°54'1815.7
2016-Aug-16 15:24N 40°50' E 014°16'16 8.6
2016-Aug-16 13:32N 40°45' E 013°56'16 5.0
2016-Aug-16 10:20N 40°50' E 014°16'16 8.8
2016-Aug-16 08:33N 40°45' E 013°57'9 0.6
2016-Aug-15 18:33N 40°46' E 014°08'4 4.4
2016-Aug-15 17:33N 40°48' E 014°13'1513.3
2016-Aug-15 16:25N 40°46' E 013°53'1717.3
2016-Aug-15 15:24N 40°50' E 014°16'16 8.0
2016-Aug-15 13:27N 40°45' E 013°56'5 2.5
2016-Aug-15 11:33N 40°45' E 014°03'2 1.0
2016-Aug-15 09:33N 40°44' E 013°60'1411.2
2016-Aug-15 08:21N 40°50' E 014°16'1618.9
2016-Aug-15 07:31N 40°45' E 013°56'0 0.0
2016-Aug-15 06:31N 40°45' E 013°56'0 0.0
2016-Aug-15 04:33N 40°45' E 013°56'9 0.9
2016-Aug-14 18:33N 40°46' E 014°08'1 1.4
2016-Aug-14 17:33N 40°46' E 014°10'1312.6
2016-Aug-14 16:33N 40°46' E 013°53'1815.5
2016-Aug-14 15:25N 40°50' E 014°16'17 9.0
2016-Aug-14 13:29N 40°46' E 013°54'10 5.2
2016-Aug-14 11:33N 40°46' E 014°07'9 7.4
2016-Aug-14 10:18N 40°46' E 013°54'1013.9
2016-Aug-14 09:33N 40°46' E 014°08'7 6.1
2016-Aug-14 08:23N 40°50' E 014°16'1618.4
2016-Aug-14 07:31N 40°45' E 013°56'0 0.0
2016-Aug-14 06:31N 40°45' E 013°56'0 0.0
2016-Aug-14 04:29N 40°45' E 013°56'9 0.9
2016-Aug-13 18:33N 40°46' E 014°08'4 4.2
2016-Aug-13 17:33N 40°47' E 014°13'  
Track history (hours):
 
Tides and Currents Weather Stations Pressure Air Temp Water Temp Dewpoint Dewpoint Depression Visibility Wind Speed Wind Dir Waves Ship Positions

Rosaria Lauro

Last reported at 2016-Aug-23 16:29 UTC. Time now 2016-Aug-24 19:40 UTC.
Position N 40°51' E 014°16'.

Length 40 m; draft 1.1 m.

Type: Passenger vessel. MMSI: 247055900.

Date/timePositionNaut miles runAvg speedWind from/ knotsBaromVisibWave heightAir tempDewpointWater temp
2016-Aug-23 16:29N 40°51' E 014°16'1 0.6
2016-Aug-23 15:31N 40°50' E 014°16'16 8.2
2016-Aug-23 13:33N 40°45' E 013°56'16 4.8
2016-Aug-23 10:16N 40°50' E 014°16'1622.5
2016-Aug-23 09:33N 40°46' E 013°56'2 1.5
2016-Aug-23 08:33N 40°45' E 013°56'16 6.5
2016-Aug-23 06:06N 40°50' E 014°16'1221.4
2016-Aug-23 05:33N 40°46' E 014°01'5 0.4
2016-Aug-22 16:32N 40°46' E 013°55'1715.0
2016-Aug-22 15:24N 40°50' E 014°16'17 8.5
2016-Aug-22 13:26N 40°45' E 013°55'1712.7
2016-Aug-22 12:07N 40°50' E 014°16'0 0.6
2016-Aug-22 11:30N 40°51' E 014°16'1 0.2
2016-Aug-22 09:28N 40°50' E 014°16'1616.5
2016-Aug-22 08:31N 40°45' E 013°56'7 7.6
2016-Aug-22 07:34N 40°46' E 014°06'2 0.8
2016-Aug-22 05:33N 40°45' E 014°04'8 0.7
2016-Aug-21 19:05N 40°46' E 013°54'1426.2
2016-Aug-21 18:33N 40°47' E 014°12'4 4.2
2016-Aug-21 17:33N 40°46' E 014°07'10 9.8
2016-Aug-21 16:33N 40°46' E 013°54'1716.1
2016-Aug-21 15:30N 40°50' E 014°16'17 8.6
2016-Aug-21 13:31N 40°46' E 013°54'1714.5
2016-Aug-21 12:21N 40°50' E 014°15'1417.9
2016-Aug-21 11:33N 40°44' E 013°58'5 5.0
2016-Aug-21 10:33N 40°46' E 013°52'1414.0
2016-Aug-21 09:33N 40°47' E 014°10'5 5.5
2016-Aug-21 08:33N 40°50' E 014°15'1515.4
2016-Aug-21 07:33N 40°45' E 013°56'1 1.0
2016-Aug-21 06:33N 40°45' E 013°56'1 0.5
2016-Aug-21 04:33N 40°45' E 013°56'9 1.1
2016-Aug-20 20:33N 40°46' E 014°08'8 7.5
2016-Aug-20 19:32N 40°51' E 014°16'0 0.0
2016-Aug-20 18:28N 40°51' E 014°16'0 0.0
2016-Aug-20 17:22N 40°51' E 014°16'0 0.0
2016-Aug-20 16:33N 40°51' E 014°16'0 0.3
2016-Aug-20 15:11N 40°50' E 014°16'1320.8
2016-Aug-20 14:33N 40°44' E 014°01'3 1.1
2016-Aug-20 11:33N 40°45' E 014°05'10 9.6
2016-Aug-20 10:32N 40°50' E 014°16'1615.9
2016-Aug-20 09:31N 40°45' E 013°56'0 0.0
2016-Aug-20 08:31N 40°45' E 013°56'14 7.2
2016-Aug-20 06:33N 40°49' E 014°14'7 7.4
2016-Aug-20 05:33N 40°46' E 014°05'2 0.2
2016-Aug-19 18:33N 40°47' E 014°08'0 0.3
2016-Aug-19 17:33N 40°46' E 014°08'1110.6
2016-Aug-19 16:33N 40°46' E 013°54'1711.6
2016-Aug-19 15:04N 40°50' E 014°16'1121.4
2016-Aug-19 14:33N 40°46' E 014°02'3 1.0
2016-Aug-19 11:33N 40°46' E 013°58'1413.6
2016-Aug-19 10:31N 40°50' E 014°16'1614.3
2016-Aug-19 09:25N 40°45' E 013°56'0 0.0
2016-Aug-19 08:30N 40°45' E 013°56'1612.2
2016-Aug-19 07:13N 40°50' E 014°16'2 2.2
2016-Aug-19 06:30N 40°50' E 014°14'8 8.4
2016-Aug-19 05:34N 40°46' E 014°04'9 0.7
2016-Aug-18 16:29N 40°46' E 013°53'1816.4
2016-Aug-18 15:23N 40°50' E 014°16'17 5.4
2016-Aug-18 12:13N 40°46' E 013°54'1218.1
2016-Aug-18 11:33N 40°47' E 014°10'3 2.6
2016-Aug-18 10:33N 40°48' E 014°13'13 6.6
2016-Aug-18 08:33N 40°45' E 013°56'1611.4
2016-Aug-18 07:10N 40°50' E 014°16'2 2.5
2016-Aug-18 06:24N 40°49' E 014°14'7 8.2
2016-Aug-18 05:34N 40°46' E 014°06'10 0.7
2016-Aug-17 16:29N 40°46' E 013°53'1816.1
2016-Aug-17 15:24N 40°50' E 014°16'16 8.6
2016-Aug-17 13:33N 40°45' E 013°56'16 5.3
2016-Aug-17 10:33N 40°49' E 014°17'16 8.0
2016-Aug-17 08:33N 40°45' E 013°56'1611.5
2016-Aug-17 07:10N 40°50' E 014°16'2 2.8
2016-Aug-17 06:26N 40°50' E 014°13'7 7.7
2016-Aug-17 05:33N 40°46' E 014°06'9 0.7
2016-Aug-16 16:31N 40°46' E 013°54'1815.7
2016-Aug-16 15:24N 40°50' E 014°16'16 8.6
2016-Aug-16 13:32N 40°45' E 013°56'16 5.0
2016-Aug-16 10:20N 40°50' E 014°16'16 8.8
2016-Aug-16 08:33N 40°45' E 013°57'9 0.6
2016-Aug-15 18:33N 40°46' E 014°08'4 4.4
2016-Aug-15 17:33N 40°48' E 014°13'1513.3
2016-Aug-15 16:25N 40°46' E 013°53'1717.3
2016-Aug-15 15:24N 40°50' E 014°16'16 8.0
2016-Aug-15 13:27N 40°45' E 013°56'5 2.5
2016-Aug-15 11:33N 40°45' E 014°03'2 1.0
2016-Aug-15 09:33N 40°44' E 013°60'1411.2
2016-Aug-15 08:21N 40°50' E 014°16'1618.9
2016-Aug-15 07:31N 40°45' E 013°56'0 0.0
2016-Aug-15 06:31N 40°45' E 013°56'0 0.0
2016-Aug-15 04:33N 40°45' E 013°56'9 0.9
2016-Aug-14 18:33N 40°46' E 014°08'1 1.4
2016-Aug-14 17:33N 40°46' E 014°10'1312.6
2016-Aug-14 16:33N 40°46' E 013°53'1815.5
2016-Aug-14 15:25N 40°50' E 014°16'17 9.0
2016-Aug-14 13:29N 40°46' E 013°54'10 5.2
2016-Aug-14 11:33N 40°46' E 014°07'9 7.4
2016-Aug-14 10:18N 40°46' E 013°54'1013.9
2016-Aug-14 09:33N 40°46' E 014°08'7 6.1
2016-Aug-14 08:23N 40°50' E 014°16'1618.4
2016-Aug-14 07:31N 40°45' E 013°56'0 0.0
2016-Aug-14 06:31N 40°45' E 013°56'0 0.0
2016-Aug-14 04:29N 40°45' E 013°56'9 0.9
2016-Aug-13 18:33N 40°46' E 014°08'4 4.2
2016-Aug-13 17:33N 40°47' E 014°13'  

Dump ship's entire track history